Página principal
METAR-TAF:

METAR-TAF

Aeroportos :

Mayagüez, Porto Rico, Estados Unidos

latitude: 18-16N, longitude: 067-09W, altura: 9 m

METAR: em falta

Hora: 10:16 (14:16 UTC)

Previsão

O boletim foi feito há 2 horas e 51 minutos, às 11:25 UTC
Previsão válida de 19 às 12 UTC a 20 às 12 UTC
Vento 5 kt de es-nordeste
Visibilidade: 10 km
Céu limpo
A partir de 19 às 1500 UTC
Vento 7 kt de este
Visibilidade: 10 km
Poucas nuvensa uma altura de 2500 ft
Nuvens dispersasa uma altura de 4000 ft
A partir de 19 às 1700 UTC
Vento 10 kt de oeste
Visibilidade: 10 km
Nuvens dispersasa uma altura de 3000 ft
Nuvens fragmentadasa uma altura de 5000 ft
aguaceiros nas vizinhanças
A partir de 19 às 2300 UTC
Vento 7 kt de este
Visibilidade: 10 km
Poucas nuvensa uma altura de 4000 ft

TAF: TJMZ 191125Z 1912/2012 07005KT P6SM SKC FM191500 08007KT P6SM FEW025 SCT040 FM191700 27010KT P6SM VCSH SCT030 BKN050 FM192300 08007KT P6SM FEW040 AMD NOT SKED

Observações e previsões do tempo de mais de 4000 aeroportos (mensagens METAR e TAF).

As estações disponíveis são os pontos amarelos e vermelhos sobre o mapa.

Mova o rato sobre o mapa para ver o nome da estação.

Depois clique no ponto para visualizar as observações e previsões meteorológicas.

Para alterar o mapa : clique nos botões verdes com uma cruz preta para aumentar o zoom; no botão verde com uma pitada de zoom; ou nas setas verdes para mapas adjacentes.


METAR-TAF: